createdAt,value
2018-10-12T00:01:00.141Z,11.00
2018-10-12T00:03:28.377Z,11.20
2018-10-12T00:05:56.606Z,10.97
2018-10-12T00:08:24.805Z,11.73
2018-10-12T00:10:53.026Z,12.40
2018-10-12T00:13:21.261Z,13.67
2018-10-12T00:15:49.476Z,12.10
2018-10-12T00:18:17.689Z,11.83
2018-10-12T00:20:45.902Z,13.07
2018-10-12T00:23:14.149Z,12.67
2018-10-12T00:25:42.664Z,10.33
2018-10-12T00:28:11.081Z,12.13
2018-10-12T00:30:39.298Z,12.60
2018-10-12T00:33:07.515Z,14.57
2018-10-12T00:35:35.725Z,12.23
2018-10-12T00:38:04.146Z,13.13
2018-10-12T00:40:32.353Z,13.60
2018-10-12T00:43:00.614Z,13.10
2018-10-12T00:45:28.849Z,13.43
2018-10-12T00:47:58.919Z,13.17
2018-10-12T00:50:27.769Z,12.37
2018-10-12T00:52:55.989Z,12.47
2018-10-12T00:55:25.012Z,15.03
2018-10-12T00:57:53.202Z,11.80
2018-10-12T01:00:21.521Z,12.90
2018-10-12T01:02:49.738Z,13.57
2018-10-12T01:05:17.969Z,12.73
2018-10-12T01:07:46.170Z,11.37
2018-10-12T01:10:14.474Z,11.90
2018-10-12T01:12:42.869Z,12.00
2018-10-12T01:15:11.054Z,10.83
2018-10-12T01:17:39.306Z,12.90
2018-10-12T01:20:08.017Z,11.50
2018-10-12T01:22:36.957Z,10.90
2018-10-12T01:25:06.418Z,10.40
2018-10-12T01:27:34.769Z,10.50
2018-10-12T01:30:03.445Z,9.63
2018-10-12T01:32:37.082Z,9.23
2018-10-12T01:35:05.290Z,8.03
2018-10-12T01:37:33.497Z,8.83
2018-10-12T01:40:01.701Z,8.53
2018-10-12T01:42:29.897Z,8.63
2018-10-12T01:44:58.098Z,9.10
2018-10-12T01:47:26.309Z,8.80
2018-10-12T01:56:38.545Z,7.93
2018-10-12T01:59:06.769Z,8.43
2018-10-12T02:01:35.048Z,7.80
2018-10-12T02:04:03.231Z,8.70
2018-10-12T02:06:31.442Z,8.80
2018-10-12T02:08:59.659Z,9.87
2018-10-12T02:11:27.872Z,7.80
2018-10-12T02:13:56.361Z,8.37
2018-10-12T02:16:24.573Z,8.67
2018-10-12T02:18:52.793Z,9.10
2018-10-12T02:21:20.985Z,8.10
2018-10-12T02:23:49.198Z,8.03
2018-10-12T02:26:17.445Z,8.20
2018-10-12T02:28:45.694Z,8.20
2018-10-12T02:31:13.893Z,8.03
2018-10-12T02:33:42.093Z,7.50
2018-10-12T02:36:10.545Z,8.07
2018-10-12T02:38:38.737Z,8.30
2018-10-12T02:41:07.010Z,8.93
2018-10-12T02:43:35.239Z,7.87
2018-10-12T02:46:03.437Z,8.63
2018-10-12T02:48:31.665Z,8.70
2018-10-12T02:50:59.867Z,7.60
2018-10-12T02:53:28.087Z,8.40
2018-10-12T02:55:56.317Z,7.23
2018-10-12T02:58:24.511Z,7.73
2018-10-12T03:00:52.717Z,8.33
2018-10-12T03:03:20.914Z,7.53
2018-10-12T03:05:49.136Z,7.37
2018-10-12T03:08:17.386Z,7.20
2018-10-12T03:10:45.569Z,8.20
2018-10-12T03:13:13.782Z,9.17
2018-10-12T03:15:42.093Z,8.07
2018-10-12T03:18:10.295Z,7.53
2018-10-12T03:20:38.591Z,7.43
2018-10-12T03:23:06.943Z,7.87
2018-10-12T03:25:35.116Z,7.70
2018-10-12T03:28:16.422Z,9.40
2018-10-12T03:30:44.649Z,8.57
2018-10-12T03:33:12.825Z,9.10
2018-10-12T03:35:41.253Z,8.20
2018-10-12T03:38:09.481Z,7.40
2018-10-12T03:40:37.889Z,7.30
2018-10-12T03:43:06.138Z,7.77
2018-10-12T03:45:34.305Z,8.90
2018-10-12T03:48:02.529Z,7.03
2018-10-12T03:50:30.738Z,7.60
2018-10-12T03:52:58.961Z,8.77
2018-10-12T03:55:27.183Z,8.30
2018-10-12T03:57:55.367Z,8.83
2018-10-12T04:00:23.601Z,10.33
2018-10-12T04:02:51.889Z,9.43
2018-10-12T04:05:20.016Z,11.80
2018-10-12T04:07:48.413Z,11.97
2018-10-12T04:10:16.587Z,11.27
2018-10-12T04:12:44.886Z,13.53
2018-10-12T04:15:13.038Z,9.77
2018-10-12T04:17:41.321Z,11.30
2018-10-12T04:20:09.756Z,9.57
2018-10-12T04:22:37.958Z,8.90
2018-10-12T04:25:06.167Z,9.80
2018-10-12T04:27:34.374Z,9.10
2018-10-12T04:30:02.646Z,12.50
2018-10-12T04:32:30.841Z,11.77
2018-10-12T04:34:59.033Z,12.93
2018-10-12T04:37:27.242Z,13.27
2018-10-12T04:40:09.305Z,11.70
2018-10-12T04:42:37.545Z,12.07
2018-10-12T04:45:06.166Z,12.97
2018-10-12T04:47:34.412Z,12.97
2018-10-12T04:50:02.634Z,12.07
2018-10-12T04:52:32.505Z,11.47
2018-10-12T04:55:00.697Z,11.87
2018-10-12T04:57:28.921Z,9.93
2018-10-12T04:59:57.150Z,15.10
2018-10-12T05:02:25.365Z,10.97
2018-10-12T05:04:53.578Z,11.27
2018-10-12T05:07:21.817Z,10.37
2018-10-12T05:09:50.027Z,9.90
2018-10-12T05:12:18.250Z,9.23
2018-10-12T05:14:46.419Z,11.40
2018-10-12T05:17:14.969Z,11.90
2018-10-12T05:19:43.177Z,11.00
2018-10-12T05:22:11.431Z,15.27
2018-10-12T05:24:39.693Z,16.63
2018-10-12T05:27:07.905Z,17.90
2018-10-12T05:29:36.385Z,14.87
2018-10-12T05:32:04.576Z,17.17
2018-10-12T05:34:32.818Z,12.93
2018-10-12T05:37:01.019Z,11.83
2018-10-12T05:39:29.249Z,11.30
2018-10-12T05:41:57.459Z,12.03
2018-10-12T05:44:25.682Z,14.77
2018-10-12T05:46:54.285Z,11.90
2018-10-12T05:49:33.781Z,12.03
2018-10-12T05:52:02.043Z,12.97
2018-10-12T05:54:30.269Z,11.70
2018-10-12T05:56:58.553Z,14.60
2018-10-12T05:59:26.769Z,9.70
2018-10-12T06:01:54.998Z,10.60
2018-10-12T06:04:23.224Z,13.33
2018-10-12T06:06:51.601Z,11.63
2018-10-12T06:09:19.806Z,11.60
2018-10-12T06:11:48.030Z,11.70
2018-10-12T06:14:16.251Z,12.17
2018-10-12T06:16:44.440Z,9.60
2018-10-12T06:19:12.657Z,12.27
2018-10-12T06:21:40.937Z,13.43
2018-10-12T06:24:09.101Z,8.27
2018-10-12T06:26:37.321Z,7.80
2018-10-12T06:29:05.916Z,7.67
2018-10-12T06:31:34.156Z,9.43
2018-10-12T06:34:02.363Z,10.23
2018-10-12T06:36:30.592Z,7.10
2018-10-12T06:38:58.786Z,8.90
2018-10-12T06:41:27.092Z,8.03
2018-10-12T06:43:55.241Z,10.40
2018-10-12T06:46:23.476Z,9.90
2018-10-12T06:48:51.680Z,12.23
2018-10-12T06:51:19.977Z,11.63
2018-10-12T06:53:48.207Z,11.33
2018-10-12T06:56:16.404Z,9.80
2018-10-12T06:58:44.579Z,7.53
2018-10-12T07:01:13.044Z,8.20
2018-10-12T07:03:42.434Z,11.10
2018-10-12T07:06:10.638Z,18.17
2018-10-12T07:08:38.852Z,7.23
2018-10-12T07:11:07.093Z,11.63
2018-10-12T07:13:35.386Z,14.07
2018-10-12T07:16:03.592Z,9.83
2018-10-12T07:18:31.798Z,9.33
2018-10-12T07:21:00.195Z,10.80
2018-10-12T07:23:28.553Z,22.70
2018-10-12T07:25:56.853Z,19.87
2018-10-12T07:28:25.030Z,9.87
2018-10-12T07:30:53.221Z,10.93
2018-10-12T07:33:21.425Z,9.40
2018-10-12T07:35:49.869Z,19.60
2018-10-12T07:38:18.827Z,9.13
2018-10-12T07:40:47.001Z,6.37
2018-10-12T07:43:15.314Z,8.40
2018-10-12T07:45:43.497Z,6.20
2018-10-12T07:48:11.803Z,10.30
2018-10-12T07:50:39.925Z,7.23
2018-10-12T07:53:08.382Z,6.17
2018-10-12T07:55:36.578Z,5.53
2018-10-12T07:58:04.962Z,4.97
2018-10-12T08:00:33.945Z,6.90
2018-10-12T08:03:01.975Z,5.70
2018-10-12T08:05:30.181Z,6.30
2018-10-12T08:07:58.421Z,5.97
2018-10-12T08:10:27.307Z,5.33
2018-10-12T08:12:55.517Z,4.60
2018-10-12T08:15:23.720Z,5.60
2018-10-12T08:17:52.149Z,4.50
2018-10-12T08:20:20.548Z,6.67
2018-10-12T08:22:49.268Z,5.70
2018-10-12T08:25:17.457Z,5.60
2018-10-12T08:27:45.694Z,4.27
2018-10-12T08:30:13.899Z,7.33
2018-10-12T08:32:42.096Z,4.73
2018-10-12T08:35:10.281Z,5.10
2018-10-12T08:37:38.527Z,5.37
2018-10-12T08:40:06.892Z,5.00
2018-10-12T08:42:35.209Z,6.20
2018-10-12T08:45:03.545Z,4.70
2018-10-12T08:47:31.757Z,4.83
2018-10-12T08:56:43.986Z,5.50
2018-10-12T08:59:12.236Z,4.80
2018-10-12T09:01:40.417Z,4.73
2018-10-12T09:04:08.616Z,4.10
2018-10-12T09:06:36.914Z,7.63
2018-10-12T09:09:08.318Z,4.40
2018-10-12T09:11:38.171Z,3.90
2018-10-12T09:14:06.701Z,5.70
2018-10-12T09:16:34.942Z,4.50
2018-10-12T09:19:04.173Z,6.00
2018-10-12T09:21:32.404Z,5.30
2018-10-12T09:24:00.641Z,4.50
2018-10-12T09:26:28.997Z,4.73
2018-10-12T09:28:57.193Z,7.77
2018-10-12T09:31:25.421Z,3.53
2018-10-12T09:33:53.651Z,4.33
2018-10-12T09:36:21.904Z,6.17
2018-10-12T09:38:50.126Z,5.50
2018-10-12T09:41:18.325Z,6.43
2018-10-12T09:43:46.539Z,4.67
2018-10-12T09:46:14.759Z,6.43
2018-10-12T09:48:43.303Z,7.73
2018-10-12T09:51:11.499Z,4.23
2018-10-12T09:53:39.758Z,5.50
2018-10-12T09:56:07.963Z,4.37
2018-10-12T09:58:36.175Z,18.17
2018-10-12T10:01:09.700Z,4.67
2018-10-12T10:03:43.275Z,4.37
2018-10-12T10:06:11.554Z,4.30
2018-10-12T10:08:39.847Z,4.63
2018-10-12T10:11:08.089Z,4.97
2018-10-12T10:13:36.409Z,5.90
2018-10-12T10:16:04.680Z,6.00
2018-10-12T10:18:32.887Z,4.30
2018-10-12T10:21:01.081Z,4.27
2018-10-12T10:23:29.297Z,5.40
2018-10-12T10:25:57.506Z,4.97
2018-10-12T10:28:25.791Z,3.90
2018-10-12T10:30:53.957Z,5.00
2018-10-12T10:33:22.173Z,4.20
2018-10-12T10:35:50.403Z,3.80
2018-10-12T10:38:18.602Z,5.63
2018-10-12T10:40:46.817Z,4.47
2018-10-12T10:43:15.030Z,8.20
2018-10-12T10:45:43.285Z,3.70
2018-10-12T10:48:11.642Z,3.83
2018-10-12T10:50:39.842Z,2.83
2018-10-12T10:53:08.273Z,2.80
2018-10-12T10:55:36.498Z,3.20
2018-10-12T10:58:04.770Z,3.00
2018-10-12T11:00:32.959Z,2.60
2018-10-12T11:03:01.220Z,3.87
2018-10-12T11:05:29.442Z,3.30
2018-10-12T11:07:57.648Z,3.30
2018-10-12T11:10:25.949Z,2.70
2018-10-12T11:12:54.345Z,3.70
2018-10-12T11:15:22.425Z,3.40
2018-10-12T11:17:50.674Z,3.03
2018-10-12T11:20:18.902Z,3.03
2018-10-12T11:22:47.153Z,5.17
2018-10-12T11:25:15.606Z,2.90
2018-10-12T11:27:43.836Z,3.10
2018-10-12T11:30:12.246Z,3.37
2018-10-12T11:32:40.479Z,2.80
2018-10-12T11:35:08.663Z,2.97
2018-10-12T11:37:36.997Z,2.43
2018-10-12T11:40:05.190Z,4.93
2018-10-12T11:42:44.733Z,2.67
2018-10-12T11:45:13.057Z,2.47
2018-10-12T11:47:41.946Z,2.67
2018-10-12T11:50:10.320Z,2.80
2018-10-12T11:52:38.543Z,3.10
2018-10-12T11:55:07.277Z,3.00
2018-10-12T11:57:35.399Z,3.17
2018-10-12T12:00:03.701Z,3.00
2018-10-12T12:02:31.924Z,3.77
2018-10-12T12:05:00.150Z,3.87
2018-10-12T12:07:28.358Z,4.00
2018-10-12T12:09:56.614Z,9.13
2018-10-12T12:12:24.869Z,4.30
2018-10-12T12:14:53.101Z,2.60
2018-10-12T12:17:21.318Z,2.70
2018-10-12T12:19:49.818Z,2.80
2018-10-12T12:22:18.101Z,4.70
2018-10-12T12:24:46.402Z,3.93
2018-10-12T12:27:14.973Z,2.90
2018-10-12T12:29:43.190Z,2.17
2018-10-12T12:32:11.417Z,2.60
2018-10-12T12:34:39.806Z,2.47
2018-10-12T12:37:07.973Z,3.50
2018-10-12T12:39:36.372Z,4.13
2018-10-12T12:42:04.603Z,3.57
2018-10-12T12:44:32.811Z,8.90
2018-10-12T12:47:02.101Z,3.40
2018-10-12T12:49:30.518Z,5.70
2018-10-12T12:51:58.560Z,12.63
2018-10-12T12:54:27.248Z,3.50
2018-10-12T12:56:55.517Z,4.97
2018-10-12T12:59:23.729Z,3.40
2018-10-12T13:01:52.360Z,4.43
2018-10-12T13:04:20.641Z,3.33
2018-10-12T13:06:48.860Z,5.73
2018-10-12T13:09:17.062Z,5.83
2018-10-12T13:11:45.292Z,3.40
2018-10-12T13:14:13.517Z,3.20
2018-10-12T13:16:41.746Z,3.73
2018-10-12T13:22:25.321Z,5.20
2018-10-12T13:24:53.706Z,3.37
2018-10-12T13:27:21.997Z,6.10
2018-10-12T13:29:50.354Z,3.50
2018-10-12T13:32:18.562Z,3.77
2018-10-12T13:34:46.814Z,4.93
2018-10-12T13:37:15.085Z,3.80
2018-10-12T13:39:43.341Z,6.10
2018-10-12T13:42:11.737Z,2.33
2018-10-12T13:44:39.913Z,5.03
2018-10-12T13:47:08.213Z,3.33
2018-10-12T13:49:36.429Z,4.00
2018-10-12T13:52:04.650Z,3.53
2018-10-12T13:54:32.873Z,4.33
2018-10-12T13:57:01.853Z,6.60
2018-10-12T13:59:31.157Z,3.60
2018-10-12T14:01:59.997Z,6.63
2018-10-12T14:04:30.254Z,3.60
2018-10-12T14:06:58.503Z,5.23
2018-10-12T14:09:27.631Z,5.03
2018-10-12T14:11:55.966Z,4.63
2018-10-12T14:14:24.960Z,4.13
2018-10-12T14:16:53.170Z,4.70
2018-10-12T14:19:21.785Z,6.00
2018-10-12T14:21:49.682Z,5.10
2018-10-12T14:24:17.888Z,5.37
2018-10-12T14:26:46.155Z,3.40
2018-10-12T14:29:14.658Z,4.40
2018-10-12T14:31:42.953Z,6.87
2018-10-12T14:34:11.114Z,3.80
2018-10-12T14:36:39.377Z,4.80
2018-10-12T14:39:08.910Z,5.10
2018-10-12T14:41:37.276Z,3.27
2018-10-12T14:44:05.711Z,3.10
2018-10-12T14:46:33.842Z,3.30
2018-10-12T14:49:02.073Z,3.80
2018-10-12T14:51:30.902Z,3.17
2018-10-12T14:53:59.130Z,5.50
2018-10-12T14:56:27.321Z,4.00
2018-10-12T14:58:55.824Z,5.27
2018-10-12T15:01:23.986Z,6.80
2018-10-12T15:03:52.230Z,5.73
2018-10-12T15:06:20.483Z,7.93
2018-10-12T15:08:48.711Z,5.53
2018-10-12T15:11:17.113Z,4.30
2018-10-12T15:13:45.437Z,4.37
2018-10-12T15:16:13.666Z,4.80
2018-10-12T15:18:41.864Z,5.27
2018-10-12T15:21:10.255Z,6.70
2018-10-12T15:23:38.331Z,5.27
2018-10-12T15:26:06.720Z,4.23
2018-10-12T15:28:34.910Z,4.53
2018-10-12T15:31:03.168Z,5.07
2018-10-12T15:33:31.417Z,6.60
2018-10-12T15:35:59.806Z,5.77
2018-10-12T15:38:28.031Z,5.13
2018-10-12T15:40:56.202Z,5.90
2018-10-12T15:43:24.488Z,8.90
2018-10-12T15:45:52.657Z,5.07
2018-10-12T15:48:20.860Z,6.23
2018-10-12T15:50:49.172Z,5.20
2018-10-12T15:53:17.378Z,5.87
2018-10-12T15:55:45.574Z,6.83
2018-10-12T15:58:13.805Z,5.17
2018-10-12T16:00:42.014Z,5.23
2018-10-12T16:03:10.449Z,8.53
2018-10-12T16:05:38.685Z,7.03
2018-10-12T16:08:07.185Z,7.20
2018-10-12T16:10:35.411Z,4.77
2018-10-12T16:13:03.863Z,7.80
2018-10-12T16:15:32.049Z,6.67
2018-10-12T16:18:00.256Z,5.67
2018-10-12T16:20:28.697Z,7.10
2018-10-12T16:22:57.154Z,7.00
2018-10-12T16:26:17.438Z,10.20
2018-10-12T16:28:45.674Z,7.17
2018-10-12T16:31:13.897Z,6.20
2018-10-12T16:33:42.109Z,6.60
2018-10-12T16:36:10.394Z,6.20
2018-10-12T16:38:38.841Z,7.40
2018-10-12T16:41:07.332Z,7.80
2018-10-12T16:43:35.547Z,6.30
2018-10-12T16:46:03.769Z,8.33
2018-10-12T16:48:31.981Z,7.27
2018-10-12T16:51:00.182Z,6.10
2018-10-12T16:53:28.408Z,9.03
2018-10-12T16:55:56.755Z,9.13
2018-10-12T16:58:25.108Z,7.77
2018-10-12T17:00:53.201Z,6.47
2018-10-12T17:03:21.417Z,7.63
2018-10-12T17:05:49.629Z,8.53
2018-10-12T17:08:17.837Z,8.87
2018-10-12T17:10:46.037Z,8.63
2018-10-12T17:13:14.485Z,9.47
2018-10-12T17:15:42.701Z,7.50
2018-10-12T17:18:11.075Z,6.57
2018-10-12T17:20:39.275Z,7.03
2018-10-12T17:23:07.497Z,7.77
2018-10-12T17:25:35.921Z,7.87
2018-10-12T17:28:04.178Z,11.60
2018-10-12T17:30:32.458Z,11.13
2018-10-12T17:33:00.658Z,8.50
2018-10-12T17:35:28.910Z,11.03
2018-10-12T17:37:57.109Z,8.37
2018-10-12T17:40:25.568Z,8.00
2018-10-12T17:42:53.801Z,7.63
2018-10-12T17:45:22.013Z,9.23
2018-10-12T17:47:51.269Z,8.03
2018-10-12T17:50:19.511Z,6.87
2018-10-12T17:52:47.865Z,8.10
2018-10-12T17:55:16.085Z,11.37
2018-10-12T17:57:44.407Z,11.77
2018-10-12T18:00:12.687Z,8.50
2018-10-12T18:02:40.836Z,12.10
2018-10-12T18:05:09.294Z,15.37
2018-10-12T18:07:37.599Z,12.53
2018-10-12T18:10:06.765Z,10.43
2018-10-12T18:12:34.990Z,10.73
2018-10-12T18:15:03.217Z,16.80
2018-10-12T18:17:31.548Z,11.40
2018-10-12T18:19:59.736Z,12.77
2018-10-12T18:22:27.935Z,10.50
2018-10-12T18:24:56.172Z,10.00
2018-10-12T18:27:24.449Z,9.73
2018-10-12T18:29:52.733Z,10.83
2018-10-12T18:32:21.081Z,11.67
2018-10-12T18:34:49.278Z,11.33
2018-10-12T18:37:17.659Z,12.57
2018-10-12T18:39:46.041Z,12.10
2018-10-12T18:42:14.256Z,14.80
2018-10-12T18:44:42.517Z,10.53
2018-10-12T18:47:10.693Z,11.77
2018-10-12T18:49:38.932Z,12.60
2018-10-12T18:52:07.870Z,12.33
2018-10-12T18:54:36.150Z,14.57
2018-10-12T18:57:04.415Z,15.90
2018-10-12T18:59:32.799Z,13.43
2018-10-12T19:02:00.945Z,14.93
2018-10-12T19:04:29.262Z,13.33
2018-10-12T19:06:57.423Z,15.63
2018-10-12T19:09:25.859Z,13.80
2018-10-12T19:11:54.181Z,15.70
2018-10-12T19:14:22.429Z,13.30
2018-10-12T19:16:50.833Z,17.03
2018-10-12T19:19:19.082Z,13.47
2018-10-12T19:21:47.358Z,13.90
2018-10-12T19:24:15.841Z,14.33
2018-10-12T19:26:44.074Z,14.17
2018-10-12T19:29:12.365Z,13.57
2018-10-12T19:31:40.667Z,11.83
2018-10-12T19:34:08.950Z,11.63
2018-10-12T19:36:37.397Z,11.57
2018-10-12T19:39:07.273Z,12.20
2018-10-12T19:41:35.607Z,12.97
2018-10-12T19:44:04.100Z,10.57
2018-10-12T19:46:32.514Z,12.37
2018-10-12T19:49:00.753Z,12.90
2018-10-12T19:51:29.237Z,13.40
2018-10-12T19:53:57.453Z,12.70
2018-10-12T19:56:25.737Z,15.37
2018-10-12T19:58:54.155Z,15.37
2018-10-12T20:01:22.366Z,15.23
2018-10-12T20:03:50.850Z,15.83
2018-10-12T20:06:19.291Z,14.10
2018-10-12T20:08:47.530Z,12.60
2018-10-12T20:11:15.850Z,11.87
2018-10-12T20:13:44.098Z,17.60
2018-10-12T20:16:12.566Z,13.20
2018-10-12T20:18:40.941Z,14.07
2018-10-12T20:21:09.281Z,14.60
2018-10-12T20:23:37.481Z,12.50
2018-10-12T20:26:06.031Z,13.00
2018-10-12T20:28:34.233Z,12.60
2018-10-12T20:31:02.652Z,13.47
2018-10-12T20:33:30.848Z,17.60
2018-10-12T20:35:59.069Z,14.83
2018-10-12T20:38:27.276Z,14.43
2018-10-12T20:40:55.549Z,14.33
2018-10-12T20:43:23.777Z,14.30
2018-10-12T20:45:51.996Z,14.87
2018-10-12T20:48:20.196Z,15.57
2018-10-12T20:50:48.483Z,14.90
2018-10-12T20:53:16.645Z,17.00
2018-10-12T20:55:44.845Z,15.57
2018-10-12T20:58:15.554Z,14.00
2018-10-12T21:00:45.069Z,15.70
2018-10-12T21:03:13.417Z,16.13
2018-10-12T21:05:42.228Z,17.03
2018-10-12T21:08:10.427Z,16.43
2018-10-12T21:10:38.645Z,15.87
2018-10-12T21:13:06.833Z,15.50
2018-10-12T21:15:35.057Z,15.07
2018-10-12T21:18:03.326Z,16.80
2018-10-12T21:20:31.613Z,16.70
2018-10-12T21:22:59.868Z,14.47
2018-10-12T21:25:28.082Z,16.10
2018-10-12T21:27:56.433Z,16.60
2018-10-12T21:30:24.642Z,14.87
2018-10-12T21:32:52.862Z,16.43
2018-10-12T21:35:21.238Z,17.53
2018-10-12T21:37:50.218Z,16.60
2018-10-12T21:40:18.445Z,19.87
2018-10-12T21:42:46.633Z,21.37
2018-10-12T21:45:14.854Z,18.87
2018-10-12T21:47:43.063Z,18.40
2018-10-12T21:50:11.530Z,17.70
2018-10-12T21:52:39.782Z,17.70
2018-10-12T21:55:08.037Z,16.83
2018-10-12T21:57:36.341Z,16.20
2018-10-12T22:00:05.434Z,17.67
2018-10-12T22:02:33.608Z,16.87
2018-10-12T22:05:02.097Z,17.80
2018-10-12T22:07:30.353Z,15.73
2018-10-12T22:09:58.495Z,14.83
2018-10-12T22:12:26.720Z,15.27
2018-10-12T22:14:54.950Z,14.13
2018-10-12T22:17:23.173Z,15.80
2018-10-12T22:19:51.621Z,14.43
2018-10-12T22:22:19.829Z,13.97
2018-10-12T22:24:48.018Z,15.77
2018-10-12T22:27:16.252Z,15.07
2018-10-12T22:29:44.548Z,15.40
2018-10-12T22:32:12.760Z,16.10
2018-10-12T22:34:40.979Z,15.83
2018-10-12T22:37:09.224Z,16.00
2018-10-12T22:39:37.465Z,17.30
2018-10-12T22:42:05.669Z,15.63
2018-10-12T22:44:33.865Z,15.20
2018-10-12T22:47:02.074Z,15.43
2018-10-12T22:49:30.286Z,16.00
2018-10-12T22:51:58.557Z,16.50
2018-10-12T22:54:27.006Z,15.07
2018-10-12T22:56:55.187Z,15.93
2018-10-12T22:59:23.406Z,16.10
2018-10-12T23:01:51.630Z,17.47
2018-10-12T23:04:20.069Z,16.47
2018-10-12T23:06:48.351Z,16.23
2018-10-12T23:09:16.564Z,15.73
2018-10-12T23:11:44.785Z,17.83
2018-10-12T23:14:12.998Z,15.50
2018-10-12T23:16:41.405Z,15.30
2018-10-12T23:19:09.643Z,18.30
2018-10-12T23:21:37.857Z,16.53
2018-10-12T23:24:06.274Z,18.83
2018-10-12T23:26:34.498Z,18.53
2018-10-12T23:29:02.697Z,16.83
2018-10-12T23:31:30.897Z,16.90
2018-10-12T23:34:02.969Z,15.50
2018-10-12T23:36:31.522Z,14.70
2018-10-12T23:39:00.346Z,12.33
2018-10-12T23:41:28.855Z,14.80
2018-10-12T23:43:57.497Z,15.20
2018-10-12T23:46:26.197Z,14.17
2018-10-12T23:48:54.413Z,15.47
2018-10-12T23:51:22.633Z,16.27
2018-10-12T23:53:50.838Z,16.10
2018-10-12T23:56:19.098Z,14.60
2018-10-12T23:58:47.661Z,15.00
